VOZ878 YSSY-YMML
Flight info
| Callsign | VOZ878 |
|---|---|
| Flight time | 1h 36m |
| Altitude | 32000 |
| Route | WOL2 WOL H65 LEECE Q29 ML DCT |
| Aircraft | B738/M-SDE2E3FGHIRWXY/LB1 |
Departure
| Time | 2026-05-06 11:59 |
|---|---|
| Airport | Sydney Kingsford Smith International Airport (YSSY) |
Arrival
| Time | 2026-05-06 13:36 |
|---|---|
| Airport | Melbourne Airport (YMML) |
| Time | Latitude | Longitude | Altitude | Speed | Heading |
|---|---|---|---|---|---|
| 2026-05-06 11:28 | -33.93473 | 151.17920 | 29 ft | 0 kts | 100° |
| 2026-05-06 11:36 | -33.93473 | 151.17919 | 29 ft | 2 kts | 100° |
| 2026-05-06 11:37 | -33.93469 | 151.17890 | 29 ft | 4 kts | 95° |
| 2026-05-06 11:37 | -33.93465 | 151.17858 | 29 ft | 4 kts | 110° |
| 2026-05-06 11:37 | -33.93463 | 151.17849 | 29 ft | 3 kts | 123° |
| 2026-05-06 11:37 | -33.93485 | 151.17854 | 29 ft | 4 kts | 181° |
| 2026-05-06 11:38 | -33.93511 | 151.17848 | 29 ft | 4 kts | 194° |
| 2026-05-06 11:38 | -33.93538 | 151.17839 | 29 ft | 4 kts | 194° |
| 2026-05-06 11:38 | -33.93564 | 151.17832 | 29 ft | 4 kts | 193° |
| 2026-05-06 11:38 | -33.93590 | 151.17825 | 29 ft | 4 kts | 191° |
| 2026-05-06 11:39 | -33.93607 | 151.17821 | 29 ft | 1 kts | 190° |
| 2026-05-06 11:42 | -33.93608 | 151.17821 | 29 ft | 1 kts | 190° |
| 2026-05-06 11:42 | -33.93631 | 151.17816 | 29 ft | 7 kts | 190° |
| 2026-05-06 11:43 | -33.93692 | 151.17799 | 29 ft | 10 kts | 194° |
| 2026-05-06 11:43 | -33.93757 | 151.17778 | 29 ft | 10 kts | 194° |
| 2026-05-06 11:43 | -33.93811 | 151.17764 | 29 ft | 7 kts | 187° |
| 2026-05-06 11:44 | -33.93923 | 151.17785 | 28 ft | 11 kts | 168° |
| 2026-05-06 11:44 | -33.94012 | 151.17808 | 28 ft | 14 kts | 167° |
| 2026-05-06 11:44 | -33.94103 | 151.17833 | 28 ft | 13 kts | 168° |
| 2026-05-06 11:44 | -33.94168 | 151.17849 | 29 ft | 7 kts | 168° |
| 2026-05-06 11:45 | -33.94215 | 151.17861 | 29 ft | 7 kts | 168° |
| 2026-05-06 11:45 | -33.94261 | 151.17873 | 29 ft | 7 kts | 168° |
| 2026-05-06 11:45 | -33.94306 | 151.17884 | 29 ft | 7 kts | 168° |
| 2026-05-06 11:45 | -33.94351 | 151.17895 | 29 ft | 6 kts | 168° |
| 2026-05-06 11:46 | -33.94395 | 151.17907 | 29 ft | 7 kts | 167° |
| 2026-05-06 11:46 | -33.94452 | 151.17907 | 29 ft | 10 kts | 201° |
| 2026-05-06 11:46 | -33.94527 | 151.17883 | 29 ft | 12 kts | 169° |
| 2026-05-06 11:46 | -33.94609 | 151.17904 | 29 ft | 12 kts | 167° |
| 2026-05-06 11:47 | -33.94691 | 151.17925 | 29 ft | 12 kts | 168° |
| 2026-05-06 11:47 | -33.94772 | 151.17946 | 29 ft | 12 kts | 168° |
| 2026-05-06 11:47 | -33.94851 | 151.17967 | 29 ft | 11 kts | 168° |
| 2026-05-06 11:47 | -33.94929 | 151.17987 | 29 ft | 12 kts | 168° |
| 2026-05-06 11:48 | -33.95017 | 151.18010 | 29 ft | 13 kts | 167° |
| 2026-05-06 11:48 | -33.95079 | 151.18035 | 29 ft | 7 kts | 142° |
| 2026-05-06 11:48 | -33.95101 | 151.18083 | 29 ft | 5 kts | 81° |
| 2026-05-06 11:48 | -33.95100 | 151.18086 | 29 ft | 0 kts | 71° |
| 2026-05-06 11:49 | -33.95100 | 151.18088 | 29 ft | 1 kts | 78° |
| 2026-05-06 11:49 | -33.95096 | 151.18121 | 29 ft | 7 kts | 80° |
| 2026-05-06 11:49 | -33.95083 | 151.18194 | 29 ft | 10 kts | 78° |
| 2026-05-06 11:49 | -33.95069 | 151.18271 | 29 ft | 10 kts | 78° |
| 2026-05-06 11:50 | -33.95055 | 151.18357 | 29 ft | 11 kts | 77° |
| 2026-05-06 11:50 | -33.95042 | 151.18451 | 29 ft | 11 kts | 93° |
| 2026-05-06 11:50 | -33.95088 | 151.18520 | 29 ft | 11 kts | 150° |
| 2026-05-06 11:50 | -33.95146 | 151.18578 | 29 ft | 11 kts | 138° |
| 2026-05-06 11:51 | -33.95203 | 151.18639 | 29 ft | 12 kts | 138° |
| 2026-05-06 11:51 | -33.95278 | 151.18701 | 29 ft | 14 kts | 158° |
| 2026-05-06 11:51 | -33.95336 | 151.18724 | 29 ft | 13 kts | 166° |
| 2026-05-06 11:51 | -33.95453 | 151.18754 | 29 ft | 12 kts | 168° |
| 2026-05-06 11:52 | -33.95507 | 151.18771 | 29 ft | 12 kts | 167° |
| 2026-05-06 11:52 | -33.95633 | 151.18802 | 29 ft | 15 kts | 167° |
| 2026-05-06 11:52 | -33.95736 | 151.18829 | 29 ft | 15 kts | 168° |
| 2026-05-06 11:52 | -33.95804 | 151.18847 | 29 ft | 15 kts | 168° |
| 2026-05-06 11:53 | -33.95901 | 151.18871 | 29 ft | 14 kts | 168° |
| 2026-05-06 11:53 | -33.95998 | 151.18897 | 29 ft | 14 kts | 168° |
| 2026-05-06 11:53 | -33.96093 | 151.18921 | 29 ft | 14 kts | 168° |
| 2026-05-06 11:53 | -33.96185 | 151.18945 | 29 ft | 15 kts | 168° |
| 2026-05-06 11:54 | -33.96303 | 151.18975 | 29 ft | 19 kts | 168° |
| 2026-05-06 11:54 | -33.96429 | 151.19008 | 29 ft | 18 kts | 168° |
| 2026-05-06 11:54 | -33.96548 | 151.19039 | 29 ft | 16 kts | 167° |
| 2026-05-06 11:54 | -33.96652 | 151.19067 | 29 ft | 15 kts | 167° |
| 2026-05-06 11:55 | -33.96749 | 151.19070 | 29 ft | 13 kts | 189° |
| 2026-05-06 11:55 | -33.96840 | 151.19070 | 29 ft | 14 kts | 168° |
| 2026-05-06 11:55 | -33.96940 | 151.19096 | 29 ft | 15 kts | 168° |
| 2026-05-06 11:55 | -33.97049 | 151.19124 | 29 ft | 16 kts | 167° |
| 2026-05-06 11:56 | -33.97110 | 151.19150 | 29 ft | 8 kts | 141° |
| 2026-05-06 11:56 | -33.97122 | 151.19221 | 29 ft | 11 kts | 77° |
| 2026-05-06 11:56 | -33.97115 | 151.19260 | 28 ft | 0 kts | 77° |
| 2026-05-06 11:58 | -33.97112 | 151.19272 | 27 ft | 4 kts | 76° |
| 2026-05-06 11:58 | -33.97087 | 151.19340 | 25 ft | 14 kts | 45° |
| 2026-05-06 11:58 | -33.97015 | 151.19360 | 25 ft | 0 kts | 346° |
| 2026-05-06 11:58 | -33.97014 | 151.19360 | 25 ft | 3 kts | 346° |
| 2026-05-06 11:59 | -33.96856 | 151.19319 | 23 ft | 53 kts | 348° |
| 2026-05-06 11:59 | -33.96243 | 151.19160 | 26 ft | 125 kts | 348° |
| 2026-05-06 11:59 | -33.95200 | 151.18884 | 111 ft | 176 kts | 347° |
| 2026-05-06 11:59 | -33.93927 | 151.18551 | 722 ft | 196 kts | 347° |
| 2026-05-06 12:00 | -33.92598 | 151.18479 | 1562 ft | 194 kts | 9° |
| 2026-05-06 12:00 | -33.91376 | 151.19217 | 2206 ft | 207 kts | 39° |
| 2026-05-06 12:00 | -33.90532 | 151.20715 | 2654 ft | 228 kts | 65° |
| 2026-05-06 12:00 | -33.90216 | 151.22635 | 3254 ft | 238 kts | 90° |
| 2026-05-06 12:01 | -33.90755 | 151.24488 | 4027 ft | 240 kts | 122° |
| 2026-05-06 12:01 | -33.91571 | 151.26274 | 4779 ft | 244 kts | 115° |
| 2026-05-06 12:01 | -33.92320 | 151.28111 | 5609 ft | 245 kts | 117° |
| 2026-05-06 12:01 | -33.93112 | 151.29943 | 6346 ft | 250 kts | 117° |
| 2026-05-06 12:02 | -33.94077 | 151.31731 | 6835 ft | 265 kts | 139° |
| 2026-05-06 12:02 | -33.95764 | 151.32739 | 7109 ft | 281 kts | 176° |
| 2026-05-06 12:02 | -33.97671 | 151.32399 | 7749 ft | 280 kts | 210° |
| 2026-05-06 12:02 | -33.99266 | 151.31088 | 8584 ft | 278 kts | 220° |
| 2026-05-06 12:03 | -34.00806 | 151.29655 | 9385 ft | 282 kts | 221° |
| 2026-05-06 12:03 | -34.02363 | 151.28195 | 10170 ft | 286 kts | 221° |
| 2026-05-06 12:03 | -34.03984 | 151.26676 | 10487 ft | 307 kts | 221° |
| 2026-05-06 12:03 | -34.05737 | 151.25042 | 10671 ft | 331 kts | 220° |
| 2026-05-06 12:04 | -34.07619 | 151.23301 | 10987 ft | 347 kts | 220° |
| 2026-05-06 12:04 | -34.09561 | 151.21518 | 11617 ft | 353 kts | 220° |
| 2026-05-06 12:04 | -34.11525 | 151.19723 | 12356 ft | 356 kts | 220° |
| 2026-05-06 12:04 | -34.13481 | 151.17939 | 13107 ft | 358 kts | 220° |
| 2026-05-06 12:05 | -34.15478 | 151.16117 | 13822 ft | 362 kts | 221° |
| 2026-05-06 12:05 | -34.17498 | 151.14273 | 14446 ft | 365 kts | 221° |
| 2026-05-06 12:05 | -34.19533 | 151.12415 | 15101 ft | 368 kts | 221° |
| 2026-05-06 12:05 | -34.21582 | 151.10543 | 15763 ft | 371 kts | 221° |
| 2026-05-06 12:06 | -34.23654 | 151.08649 | 16412 ft | 374 kts | 221° |
| 2026-05-06 12:06 | -34.25734 | 151.06746 | 17038 ft | 377 kts | 221° |
| 2026-05-06 12:06 | -34.27834 | 151.04823 | 17664 ft | 380 kts | 221° |
| 2026-05-06 12:06 | -34.29950 | 151.02883 | 18275 ft | 383 kts | 221° |
| 2026-05-06 12:07 | -34.32087 | 151.00924 | 18803 ft | 387 kts | 221° |
| 2026-05-06 12:07 | -34.34244 | 150.98945 | 19341 ft | 390 kts | 221° |
| 2026-05-06 12:07 | -34.36413 | 150.96955 | 19868 ft | 393 kts | 221° |
| 2026-05-06 12:07 | -34.38599 | 150.94947 | 20372 ft | 396 kts | 221° |
| 2026-05-06 12:08 | -34.40777 | 150.92946 | 20870 ft | 399 kts | 221° |
| 2026-05-06 12:08 | -34.42998 | 150.90903 | 21367 ft | 402 kts | 221° |
| 2026-05-06 12:08 | -34.45238 | 150.88841 | 21854 ft | 406 kts | 221° |
| 2026-05-06 12:08 | -34.47496 | 150.86761 | 22340 ft | 409 kts | 221° |
| 2026-05-06 12:09 | -34.49766 | 150.84669 | 22821 ft | 412 kts | 222° |
| 2026-05-06 12:09 | -34.52059 | 150.82554 | 23269 ft | 416 kts | 222° |
| 2026-05-06 12:09 | -34.54366 | 150.80415 | 23704 ft | 418 kts | 224° |
| 2026-05-06 12:09 | -34.56484 | 150.78020 | 24079 ft | 415 kts | 233° |
| 2026-05-06 12:10 | -34.58241 | 150.75266 | 24519 ft | 412 kts | 238° |
| 2026-05-06 12:10 | -34.59919 | 150.72440 | 24934 ft | 413 kts | 239° |
| 2026-05-06 12:10 | -34.61595 | 150.69601 | 25331 ft | 415 kts | 239° |
| 2026-05-06 12:10 | -34.63282 | 150.66751 | 25730 ft | 417 kts | 239° |
| 2026-05-06 12:11 | -34.64987 | 150.63884 | 26108 ft | 419 kts | 239° |
| 2026-05-06 12:11 | -34.66699 | 150.61017 | 26510 ft | 420 kts | 239° |
| 2026-05-06 12:11 | -34.68423 | 150.58137 | 26881 ft | 422 kts | 238° |
| 2026-05-06 12:11 | -34.70155 | 150.55249 | 27202 ft | 424 kts | 239° |
| 2026-05-06 12:12 | -34.71895 | 150.52348 | 27579 ft | 425 kts | 239° |
| 2026-05-06 12:12 | -34.73639 | 150.49436 | 27942 ft | 427 kts | 239° |
| 2026-05-06 12:12 | -34.75390 | 150.46512 | 28273 ft | 428 kts | 239° |
| 2026-05-06 12:12 | -34.77125 | 150.43612 | 28575 ft | 430 kts | 239° |
| 2026-05-06 12:13 | -34.78914 | 150.40620 | 28865 ft | 432 kts | 239° |
| 2026-05-06 12:13 | -34.80662 | 150.37694 | 29196 ft | 434 kts | 239° |
| 2026-05-06 12:13 | -34.82441 | 150.34714 | 29545 ft | 436 kts | 239° |
| 2026-05-06 12:13 | -34.84221 | 150.31726 | 29892 ft | 436 kts | 239° |
| 2026-05-06 12:14 | -34.86001 | 150.28737 | 30371 ft | 433 kts | 239° |
| 2026-05-06 12:14 | -34.87763 | 150.25781 | 30826 ft | 429 kts | 239° |
| 2026-05-06 12:14 | -34.89514 | 150.22844 | 31195 ft | 428 kts | 239° |
| 2026-05-06 12:14 | -34.91259 | 150.19906 | 31503 ft | 428 kts | 240° |
| 2026-05-06 12:15 | -34.93002 | 150.16968 | 31845 ft | 427 kts | 240° |
| 2026-05-06 12:15 | -34.94717 | 150.14074 | 32101 ft | 428 kts | 240° |
| 2026-05-06 12:15 | -34.98259 | 150.08084 | 32117 ft | 442 kts | 240° |
| 2026-05-06 12:16 | -35.01890 | 150.01945 | 32117 ft | 450 kts | 240° |
| 2026-05-06 12:16 | -35.05574 | 149.95708 | 32102 ft | 455 kts | 240° |
| 2026-05-06 12:17 | -35.09238 | 149.89511 | 32087 ft | 441 kts | 240° |
| 2026-05-06 12:17 | -35.11010 | 149.86520 | 32083 ft | 428 kts | 240° |
| 2026-05-06 12:17 | -35.12744 | 149.83583 | 32127 ft | 424 kts | 240° |
| 2026-05-06 12:18 | -35.16177 | 149.77743 | 32115 ft | 422 kts | 240° |
| 2026-05-06 12:18 | -35.19598 | 149.71910 | 32101 ft | 421 kts | 240° |
| 2026-05-06 12:19 | -35.22987 | 149.66126 | 32110 ft | 421 kts | 240° |
| 2026-05-06 12:19 | -35.26422 | 149.60259 | 32103 ft | 421 kts | 240° |
| 2026-05-06 12:20 | -35.29810 | 149.54460 | 32115 ft | 422 kts | 240° |
| 2026-05-06 12:20 | -35.33228 | 149.48604 | 32117 ft | 423 kts | 240° |
| 2026-05-06 12:21 | -35.36654 | 149.42722 | 32106 ft | 424 kts | 240° |
| 2026-05-06 12:21 | -35.40082 | 149.36828 | 32108 ft | 425 kts | 240° |
| 2026-05-06 12:22 | -35.43517 | 149.30914 | 32123 ft | 426 kts | 241° |
| 2026-05-06 12:22 | -35.46954 | 149.24984 | 32106 ft | 427 kts | 241° |
| 2026-05-06 12:23 | -35.50363 | 149.19089 | 32108 ft | 427 kts | 241° |
| 2026-05-06 12:23 | -35.53802 | 149.13139 | 32110 ft | 427 kts | 241° |
| 2026-05-06 12:24 | -35.57231 | 149.07196 | 32134 ft | 427 kts | 242° |
| 2026-05-06 12:24 | -35.60666 | 149.01232 | 32115 ft | 426 kts | 242° |
| 2026-05-06 12:25 | -35.64076 | 148.95300 | 32111 ft | 425 kts | 242° |
| 2026-05-06 12:25 | -35.67471 | 148.89383 | 32121 ft | 422 kts | 242° |
| 2026-05-06 12:26 | -35.70849 | 148.83482 | 32159 ft | 422 kts | 242° |
| 2026-05-06 12:26 | -35.74225 | 148.77576 | 32131 ft | 421 kts | 242° |
| 2026-05-06 12:27 | -35.77588 | 148.71690 | 32106 ft | 419 kts | 242° |
| 2026-05-06 12:27 | -35.80938 | 148.65807 | 32120 ft | 419 kts | 242° |
| 2026-05-06 12:28 | -35.84267 | 148.59953 | 32110 ft | 420 kts | 242° |
| 2026-05-06 12:28 | -35.87623 | 148.54044 | 32138 ft | 421 kts | 242° |
| 2026-05-06 12:29 | -35.90980 | 148.48103 | 32122 ft | 422 kts | 243° |
| 2026-05-06 12:29 | -35.94327 | 148.42158 | 32125 ft | 422 kts | 242° |
| 2026-05-06 12:30 | -35.97667 | 148.36195 | 32127 ft | 423 kts | 243° |
| 2026-05-06 12:30 | -36.01020 | 148.30206 | 32149 ft | 425 kts | 243° |
| 2026-05-06 12:31 | -36.04381 | 148.24201 | 32140 ft | 426 kts | 243° |
| 2026-05-06 12:31 | -36.07753 | 148.18160 | 32160 ft | 428 kts | 243° |
| 2026-05-06 12:32 | -36.11140 | 148.12088 | 32137 ft | 428 kts | 243° |
| 2026-05-06 12:32 | -36.14526 | 148.06025 | 32126 ft | 427 kts | 243° |
| 2026-05-06 12:33 | -36.17897 | 147.99993 | 32124 ft | 425 kts | 243° |
| 2026-05-06 12:33 | -36.21242 | 147.93994 | 32132 ft | 422 kts | 243° |
| 2026-05-06 12:34 | -36.24564 | 147.88020 | 32142 ft | 420 kts | 244° |
| 2026-05-06 12:34 | -36.27871 | 147.82063 | 32147 ft | 419 kts | 244° |
| 2026-05-06 12:35 | -36.31145 | 147.76158 | 32141 ft | 417 kts | 244° |
| 2026-05-06 12:35 | -36.34423 | 147.70228 | 32124 ft | 416 kts | 244° |
| 2026-05-06 12:36 | -36.37689 | 147.64306 | 32137 ft | 416 kts | 244° |
| 2026-05-06 12:36 | -36.40967 | 147.58358 | 32145 ft | 418 kts | 244° |
| 2026-05-06 12:37 | -36.44245 | 147.52384 | 32112 ft | 419 kts | 244° |
| 2026-05-06 12:37 | -36.47507 | 147.46435 | 32115 ft | 420 kts | 244° |
| 2026-05-06 12:38 | -36.50798 | 147.40419 | 32105 ft | 421 kts | 244° |
| 2026-05-06 12:38 | -36.54087 | 147.34402 | 32144 ft | 420 kts | 244° |
| 2026-05-06 12:39 | -36.56819 | 147.29395 | 32106 ft | 420 kts | 245° |
| 2026-05-06 12:39 | -36.60091 | 147.23412 | 32106 ft | 416 kts | 245° |
| 2026-05-06 12:40 | -36.63328 | 147.17433 | 32098 ft | 415 kts | 245° |
| 2026-05-06 12:40 | -36.66562 | 147.11471 | 32091 ft | 415 kts | 245° |
| 2026-05-06 12:41 | -36.69797 | 147.05505 | 32105 ft | 415 kts | 245° |
| 2026-05-06 12:41 | -36.73017 | 146.99537 | 32089 ft | 415 kts | 245° |
| 2026-05-06 12:42 | -36.76224 | 146.93615 | 32067 ft | 413 kts | 245° |
| 2026-05-06 12:42 | -36.79434 | 146.87690 | 32080 ft | 412 kts | 245° |
| 2026-05-06 12:43 | -36.82640 | 146.81744 | 32097 ft | 413 kts | 245° |
| 2026-05-06 12:43 | -36.85844 | 146.75791 | 32081 ft | 413 kts | 246° |
| 2026-05-06 12:44 | -36.89040 | 146.69841 | 32085 ft | 412 kts | 246° |
| 2026-05-06 12:44 | -36.92219 | 146.63912 | 32080 ft | 410 kts | 246° |
| 2026-05-06 12:45 | -36.95392 | 146.57983 | 32086 ft | 410 kts | 246° |
| 2026-05-06 12:46 | -37.00144 | 146.49092 | 32080 ft | 408 kts | 246° |
| 2026-05-06 12:46 | -37.03294 | 146.43184 | 32081 ft | 408 kts | 246° |
| 2026-05-06 12:47 | -37.06437 | 146.37269 | 32118 ft | 409 kts | 247° |
| 2026-05-06 12:47 | -37.09589 | 146.31328 | 32067 ft | 409 kts | 247° |
| 2026-05-06 12:48 | -37.12705 | 146.25441 | 32073 ft | 408 kts | 247° |
| 2026-05-06 12:48 | -37.15835 | 146.19514 | 32077 ft | 407 kts | 247° |
| 2026-05-06 12:49 | -37.18950 | 146.13604 | 32126 ft | 406 kts | 247° |
| 2026-05-06 12:49 | -37.22062 | 146.07688 | 32082 ft | 406 kts | 247° |
| 2026-05-06 12:50 | -37.25172 | 146.01778 | 32096 ft | 404 kts | 247° |
| 2026-05-06 12:50 | -37.28255 | 145.95883 | 32102 ft | 404 kts | 247° |
| 2026-05-06 12:51 | -37.31351 | 145.89987 | 32150 ft | 403 kts | 247° |
| 2026-05-06 12:51 | -37.34456 | 145.84089 | 32107 ft | 405 kts | 248° |
| 2026-05-06 12:52 | -37.37580 | 145.78135 | 31733 ft | 411 kts | 247° |
| 2026-05-06 12:52 | -37.39137 | 145.75183 | 31474 ft | 399 kts | 247° |
| 2026-05-06 12:52 | -37.40635 | 145.72346 | 31227 ft | 390 kts | 248° |
| 2026-05-06 12:52 | -37.42115 | 145.69530 | 30966 ft | 381 kts | 248° |
| 2026-05-06 12:53 | -37.43561 | 145.66772 | 30690 ft | 374 kts | 248° |
| 2026-05-06 12:53 | -37.44893 | 145.64019 | 30317 ft | 360 kts | 254° |
| 2026-05-06 12:53 | -37.45855 | 145.61186 | 29903 ft | 345 kts | 262° |
| 2026-05-06 12:53 | -37.46602 | 145.58344 | 29517 ft | 339 kts | 262° |
| 2026-05-06 12:54 | -37.47338 | 145.55535 | 29145 ft | 334 kts | 262° |
| 2026-05-06 12:54 | -37.48061 | 145.52783 | 28772 ft | 329 kts | 262° |
| 2026-05-06 12:54 | -37.48772 | 145.50079 | 28471 ft | 322 kts | 261° |
| 2026-05-06 12:54 | -37.49471 | 145.47432 | 28196 ft | 315 kts | 261° |
| 2026-05-06 12:55 | -37.50148 | 145.44869 | 27924 ft | 310 kts | 262° |
| 2026-05-06 12:55 | -37.50821 | 145.42316 | 27665 ft | 306 kts | 262° |
| 2026-05-06 12:55 | -37.51492 | 145.39758 | 27418 ft | 310 kts | 262° |
| 2026-05-06 12:55 | -37.52171 | 145.37163 | 27220 ft | 314 kts | 262° |
| 2026-05-06 12:56 | -37.52861 | 145.34530 | 26985 ft | 316 kts | 262° |
| 2026-05-06 12:56 | -37.53551 | 145.31915 | 26726 ft | 312 kts | 262° |
| 2026-05-06 12:56 | -37.54235 | 145.29326 | 26472 ft | 310 kts | 262° |
| 2026-05-06 12:56 | -37.54914 | 145.26750 | 26221 ft | 309 kts | 262° |
| 2026-05-06 12:57 | -37.55588 | 145.24189 | 25969 ft | 307 kts | 261° |
| 2026-05-06 12:57 | -37.56255 | 145.21647 | 25720 ft | 305 kts | 261° |
| 2026-05-06 12:57 | -37.56918 | 145.19118 | 25474 ft | 303 kts | 261° |
| 2026-05-06 12:57 | -37.57576 | 145.16603 | 25227 ft | 300 kts | 261° |
| 2026-05-06 12:58 | -37.58226 | 145.14125 | 24934 ft | 296 kts | 261° |
| 2026-05-06 12:58 | -37.58868 | 145.11671 | 24594 ft | 293 kts | 261° |
| 2026-05-06 12:58 | -37.59500 | 145.09251 | 24269 ft | 290 kts | 261° |
| 2026-05-06 12:58 | -37.60127 | 145.06846 | 23948 ft | 287 kts | 261° |
| 2026-05-06 12:59 | -37.60746 | 145.04469 | 23614 ft | 284 kts | 261° |
| 2026-05-06 12:59 | -37.61360 | 145.02111 | 23279 ft | 281 kts | 262° |
| 2026-05-06 12:59 | -37.61965 | 144.99784 | 22932 ft | 277 kts | 262° |
| 2026-05-06 12:59 | -37.62552 | 144.97526 | 22625 ft | 273 kts | 262° |
| 2026-05-06 13:00 | -37.63307 | 144.95318 | 22275 ft | 284 kts | 248° |
| 2026-05-06 13:00 | -37.64805 | 144.93482 | 21558 ft | 322 kts | 225° |
| 2026-05-06 13:00 | -37.67008 | 144.92415 | 21010 ft | 358 kts | 203° |
| 2026-05-06 13:00 | -37.69549 | 144.92187 | 20668 ft | 370 kts | 194° |
| 2026-05-06 13:01 | -37.72132 | 144.92194 | 20276 ft | 371 kts | 192° |
| 2026-05-06 13:01 | -37.74693 | 144.92248 | 20035 ft | 366 kts | 192° |
| 2026-05-06 13:01 | -37.77229 | 144.92314 | 19863 ft | 364 kts | 192° |
| 2026-05-06 13:01 | -37.79762 | 144.92382 | 19508 ft | 365 kts | 192° |
| 2026-05-06 13:02 | -37.82308 | 144.92446 | 19144 ft | 366 kts | 192° |
| 2026-05-06 13:02 | -37.84856 | 144.92502 | 18779 ft | 367 kts | 192° |
| 2026-05-06 13:02 | -37.87417 | 144.92552 | 18421 ft | 368 kts | 192° |
| 2026-05-06 13:02 | -37.89970 | 144.92594 | 18014 ft | 366 kts | 191° |
| 2026-05-06 13:03 | -37.92505 | 144.92623 | 17607 ft | 363 kts | 191° |
| 2026-05-06 13:03 | -37.95022 | 144.92630 | 17204 ft | 360 kts | 191° |
| 2026-05-06 13:03 | -37.97516 | 144.92610 | 16844 ft | 357 kts | 191° |
| 2026-05-06 13:03 | -38.00018 | 144.92933 | 16416 ft | 372 kts | 172° |
| 2026-05-06 13:04 | -38.02382 | 144.94370 | 16028 ft | 384 kts | 149° |
| 2026-05-06 13:04 | -38.04269 | 144.96791 | 15645 ft | 390 kts | 126° |
| 2026-05-06 13:04 | -38.05425 | 144.99900 | 15270 ft | 390 kts | 104° |
| 2026-05-06 13:04 | -38.05694 | 145.03274 | 14905 ft | 380 kts | 80° |
| 2026-05-06 13:05 | -38.05096 | 145.06459 | 14578 ft | 366 kts | 64° |
| 2026-05-06 13:05 | -38.04279 | 145.09415 | 14517 ft | 353 kts | 64° |
| 2026-05-06 13:05 | -38.03368 | 145.12235 | 14409 ft | 334 kts | 50° |
| 2026-05-06 13:05 | -38.01902 | 145.14317 | 14289 ft | 303 kts | 24° |
| 2026-05-06 13:06 | -38.00135 | 145.15540 | 14240 ft | 280 kts | 14° |
| 2026-05-06 13:06 | -37.98393 | 145.16521 | 14166 ft | 269 kts | 12° |
| 2026-05-06 13:06 | -37.96701 | 145.17456 | 14093 ft | 259 kts | 12° |
| 2026-05-06 13:06 | -37.95074 | 145.18360 | 13989 ft | 252 kts | 12° |
| 2026-05-06 13:07 | -37.93464 | 145.19249 | 13602 ft | 254 kts | 12° |
| 2026-05-06 13:07 | -37.91830 | 145.20131 | 13208 ft | 257 kts | 12° |
| 2026-05-06 13:07 | -37.90152 | 145.20838 | 12789 ft | 247 kts | 355° |
| 2026-05-06 13:07 | -37.88538 | 145.20537 | 12395 ft | 229 kts | 326° |
| 2026-05-06 13:08 | -37.87399 | 145.19278 | 12008 ft | 219 kts | 297° |
| 2026-05-06 13:08 | -37.86879 | 145.17451 | 11640 ft | 219 kts | 284° |
| 2026-05-06 13:08 | -37.86541 | 145.15581 | 11264 ft | 222 kts | 282° |
| 2026-05-06 13:08 | -37.86206 | 145.13656 | 10896 ft | 225 kts | 282° |
| 2026-05-06 13:09 | -37.85863 | 145.11701 | 10518 ft | 229 kts | 282° |
| 2026-05-06 13:09 | -37.85508 | 145.09722 | 10144 ft | 233 kts | 282° |
| 2026-05-06 13:09 | -37.85137 | 145.07715 | 9753 ft | 236 kts | 282° |
| 2026-05-06 13:09 | -37.84752 | 145.05682 | 9351 ft | 239 kts | 282° |
| 2026-05-06 13:10 | -37.84373 | 145.03603 | 9034 ft | 237 kts | 275° |
| 2026-05-06 13:10 | -37.84578 | 145.01618 | 8996 ft | 225 kts | 246° |
| 2026-05-06 13:10 | -37.85583 | 145.00157 | 8951 ft | 222 kts | 217° |
| 2026-05-06 13:10 | -37.87095 | 144.99565 | 8520 ft | 240 kts | 186° |
| 2026-05-06 13:11 | -37.88755 | 145.00100 | 8149 ft | 259 kts | 156° |
| 2026-05-06 13:11 | -37.90096 | 145.01702 | 7801 ft | 275 kts | 126° |
| 2026-05-06 13:11 | -37.90767 | 145.03996 | 7496 ft | 283 kts | 105° |
| 2026-05-06 13:11 | -37.91107 | 145.06463 | 7165 ft | 285 kts | 100° |
| 2026-05-06 13:12 | -37.90985 | 145.08982 | 6812 ft | 291 kts | 73° |
| 2026-05-06 13:12 | -37.90021 | 145.11172 | 6506 ft | 290 kts | 44° |
| 2026-05-06 13:12 | -37.88385 | 145.12628 | 6159 ft | 283 kts | 18° |
| 2026-05-06 13:12 | -37.86571 | 145.13462 | 5854 ft | 281 kts | 13° |
| 2026-05-06 13:13 | -37.84709 | 145.14228 | 5534 ft | 281 kts | 12° |
| 2026-05-06 13:13 | -37.82850 | 145.14968 | 5208 ft | 280 kts | 9° |
| 2026-05-06 13:13 | -37.80944 | 145.15237 | 4892 ft | 273 kts | 354° |
| 2026-05-06 13:13 | -37.79049 | 145.15211 | 4598 ft | 272 kts | 352° |
| 2026-05-06 13:14 | -37.77170 | 145.15158 | 4389 ft | 266 kts | 352° |
| 2026-05-06 13:14 | -37.75374 | 145.15108 | 4294 ft | 251 kts | 352° |
| 2026-05-06 13:14 | -37.73677 | 145.15066 | 4170 ft | 237 kts | 350° |
| 2026-05-06 13:14 | -37.72178 | 145.14593 | 4041 ft | 211 kts | 325° |
| 2026-05-06 13:15 | -37.70923 | 145.13754 | 3862 ft | 201 kts | 323° |
| 2026-05-06 13:15 | -37.69720 | 145.12915 | 3656 ft | 195 kts | 322° |
| 2026-05-06 13:15 | -37.68762 | 145.11830 | 3363 ft | 178 kts | 290° |
| 2026-05-06 13:15 | -37.68289 | 145.10416 | 3205 ft | 172 kts | 286° |
| 2026-05-06 13:16 | -37.67873 | 145.09019 | 3279 ft | 171 kts | 283° |
| 2026-05-06 13:16 | -37.67528 | 145.07559 | 3288 ft | 174 kts | 279° |
| 2026-05-06 13:16 | -37.67289 | 145.06122 | 3271 ft | 163 kts | 275° |
| 2026-05-06 13:16 | -37.67159 | 145.04757 | 3250 ft | 146 kts | 270° |
| 2026-05-06 13:17 | -37.67131 | 145.03527 | 3267 ft | 140 kts | 265° |
| 2026-05-06 13:17 | -37.67139 | 145.02308 | 3282 ft | 138 kts | 269° |
| 2026-05-06 13:17 | -37.67086 | 145.01009 | 3035 ft | 155 kts | 269° |
| 2026-05-06 13:17 | -37.67025 | 144.99731 | 2992 ft | 135 kts | 268° |
| 2026-05-06 13:18 | -37.66963 | 144.98592 | 2753 ft | 127 kts | 268° |
| 2026-05-06 13:18 | -37.66896 | 144.97525 | 2561 ft | 120 kts | 268° |
| 2026-05-06 13:18 | -37.66873 | 144.96487 | 2444 ft | 118 kts | 266° |
| 2026-05-06 13:18 | -37.66814 | 144.95440 | 2195 ft | 119 kts | 268° |
| 2026-05-06 13:19 | -37.66759 | 144.94398 | 1976 ft | 119 kts | 267° |
| 2026-05-06 13:19 | -37.66708 | 144.93362 | 1780 ft | 118 kts | 268° |
| 2026-05-06 13:19 | -37.66655 | 144.92334 | 1593 ft | 118 kts | 269° |
| 2026-05-06 13:19 | -37.66598 | 144.91280 | 1371 ft | 121 kts | 269° |
| 2026-05-06 13:20 | -37.66544 | 144.90245 | 1216 ft | 117 kts | 271° |
| 2026-05-06 13:20 | -37.66474 | 144.89227 | 1058 ft | 115 kts | 269° |
| 2026-05-06 13:20 | -37.66417 | 144.88220 | 902 ft | 121 kts | 269° |
| 2026-05-06 13:20 | -37.66359 | 144.87123 | 788 ft | 124 kts | 270° |
| 2026-05-06 13:21 | -37.66280 | 144.86059 | 782 ft | 112 kts | 273° |
| 2026-05-06 13:21 | -37.66138 | 144.85184 | 1454 ft | 102 kts | 278° |
| 2026-05-06 13:21 | -37.65921 | 144.84210 | 1778 ft | 127 kts | 278° |
| 2026-05-06 13:21 | -37.65763 | 144.83131 | 2053 ft | 122 kts | 272° |
| 2026-05-06 13:22 | -37.65668 | 144.82078 | 2278 ft | 119 kts | 270° |
| 2026-05-06 13:22 | -37.65600 | 144.81037 | 2472 ft | 118 kts | 267° |
| 2026-05-06 13:22 | -37.65556 | 144.79945 | 2717 ft | 140 kts | 266° |
| 2026-05-06 13:22 | -37.65566 | 144.78554 | 2617 ft | 170 kts | 264° |
| 2026-05-06 13:23 | -37.65859 | 144.77059 | 2718 ft | 188 kts | 237° |
| 2026-05-06 13:23 | -37.66982 | 144.75965 | 3110 ft | 225 kts | 206° |
| 2026-05-06 13:23 | -37.67990 | 144.75545 | 3628 ft | 234 kts | 201° |
| 2026-05-06 13:23 | -37.70045 | 144.74746 | 3989 ft | 229 kts | 202° |
| 2026-05-06 13:24 | -37.71078 | 144.74359 | 3980 ft | 231 kts | 200° |
| 2026-05-06 13:24 | -37.73266 | 144.74543 | 3991 ft | 256 kts | 163° |
| 2026-05-06 13:24 | -37.74718 | 144.75960 | 4014 ft | 275 kts | 134° |
| 2026-05-06 13:24 | -37.75367 | 144.77392 | 4003 ft | 283 kts | 117° |
| 2026-05-06 13:25 | -37.76199 | 144.80536 | 4000 ft | 285 kts | 112° |
| 2026-05-06 13:25 | -37.76591 | 144.82154 | 4000 ft | 285 kts | 112° |
| 2026-05-06 13:25 | -37.77160 | 144.84527 | 3998 ft | 285 kts | 112° |
| 2026-05-06 13:25 | -37.77731 | 144.86926 | 4004 ft | 284 kts | 111° |
| 2026-05-06 13:26 | -37.78300 | 144.89319 | 4000 ft | 284 kts | 112° |
| 2026-05-06 13:26 | -37.78867 | 144.91712 | 4004 ft | 285 kts | 112° |
| 2026-05-06 13:26 | -37.79436 | 144.94116 | 3997 ft | 285 kts | 112° |
| 2026-05-06 13:26 | -37.80004 | 144.96523 | 4012 ft | 286 kts | 111° |
| 2026-05-06 13:27 | -37.80566 | 144.98913 | 3991 ft | 281 kts | 112° |
| 2026-05-06 13:27 | -37.81113 | 145.01257 | 3994 ft | 274 kts | 111° |
| 2026-05-06 13:27 | -37.81654 | 145.03559 | 3994 ft | 271 kts | 110° |
| 2026-05-06 13:27 | -37.81814 | 145.05958 | 4008 ft | 280 kts | 86° |
| 2026-05-06 13:28 | -37.81528 | 145.08411 | 4000 ft | 283 kts | 79° |
| 2026-05-06 13:28 | -37.80729 | 145.10666 | 3998 ft | 281 kts | 50° |
| 2026-05-06 13:28 | -37.79250 | 145.12186 | 4015 ft | 271 kts | 20° |
| 2026-05-06 13:28 | -37.77525 | 145.12997 | 3997 ft | 266 kts | 13° |
| 2026-05-06 13:29 | -37.75759 | 145.13709 | 4014 ft | 266 kts | 12° |
| 2026-05-06 13:29 | -37.73990 | 145.14405 | 4012 ft | 267 kts | 12° |
| 2026-05-06 13:29 | -37.72195 | 145.15104 | 3761 ft | 272 kts | 11° |
| 2026-05-06 13:29 | -37.70396 | 145.15386 | 3657 ft | 250 kts | 342° |
| 2026-05-06 13:30 | -37.68984 | 145.14449 | 3607 ft | 219 kts | 303° |
| 2026-05-06 13:30 | -37.68393 | 145.12834 | 3533 ft | 195 kts | 279° |
| 2026-05-06 13:30 | -37.68090 | 145.11209 | 3350 ft | 186 kts | 277° |
| 2026-05-06 13:30 | -37.67831 | 145.09649 | 3179 ft | 177 kts | 275° |
| 2026-05-06 13:31 | -37.67655 | 145.08169 | 3088 ft | 166 kts | 272° |
| 2026-05-06 13:31 | -37.67538 | 145.06717 | 3024 ft | 166 kts | 271° |
| 2026-05-06 13:31 | -37.67441 | 145.05266 | 2949 ft | 166 kts | 271° |
| 2026-05-06 13:31 | -37.67350 | 145.03813 | 2874 ft | 164 kts | 271° |
| 2026-05-06 13:32 | -37.67266 | 145.02431 | 2785 ft | 151 kts | 270° |
| 2026-05-06 13:32 | -37.67189 | 145.01167 | 2718 ft | 140 kts | 270° |
| 2026-05-06 13:32 | -37.67117 | 144.99950 | 2675 ft | 138 kts | 269° |
| 2026-05-06 13:32 | -37.67046 | 144.98750 | 2548 ft | 133 kts | 269° |
| 2026-05-06 13:33 | -37.66979 | 144.97619 | 2476 ft | 130 kts | 268° |
| 2026-05-06 13:33 | -37.66912 | 144.96476 | 2341 ft | 129 kts | 268° |
| 2026-05-06 13:33 | -37.66845 | 144.95347 | 2135 ft | 129 kts | 269° |
| 2026-05-06 13:33 | -37.66779 | 144.94229 | 1947 ft | 130 kts | 269° |
| 2026-05-06 13:34 | -37.66712 | 144.93085 | 1766 ft | 132 kts | 269° |
| 2026-05-06 13:34 | -37.66642 | 144.91919 | 1558 ft | 136 kts | 269° |
| 2026-05-06 13:34 | -37.66577 | 144.90715 | 1383 ft | 139 kts | 270° |
| 2026-05-06 13:34 | -37.66513 | 144.89510 | 1161 ft | 139 kts | 272° |
| 2026-05-06 13:35 | -37.66436 | 144.88275 | 990 ft | 142 kts | 271° |
| 2026-05-06 13:35 | -37.66362 | 144.87018 | 795 ft | 144 kts | 271° |
| 2026-05-06 13:35 | -37.66290 | 144.85775 | 612 ft | 140 kts | 270° |
| 2026-05-06 13:35 | -37.66209 | 144.84559 | 470 ft | 139 kts | 271° |
| 2026-05-06 13:36 | -37.66148 | 144.83436 | 414 ft | 113 kts | 274° |
| 2026-05-06 13:36 | -37.66101 | 144.82668 | 401 ft | 54 kts | 274° |
| 2026-05-06 13:36 | -37.66087 | 144.82402 | 399 ft | 15 kts | 272° |
| 2026-05-06 13:36 | -37.66109 | 144.82280 | 400 ft | 13 kts | 231° |
| 2026-05-06 13:37 | -37.66154 | 144.82237 | 399 ft | 0 kts | 202° |
| 2026-05-06 13:37 | -37.66163 | 144.82234 | 397 ft | 5 kts | 197° |
| 2026-05-06 13:37 | -37.66241 | 144.82223 | 390 ft | 17 kts | 185° |
| 2026-05-06 13:37 | -37.66368 | 144.82267 | 386 ft | 21 kts | 133° |
| 2026-05-06 13:38 | -37.66408 | 144.82458 | 378 ft | 23 kts | 100° |
| 2026-05-06 13:38 | -37.66436 | 144.82653 | 384 ft | 22 kts | 98° |
| 2026-05-06 13:38 | -37.66449 | 144.82845 | 384 ft | 22 kts | 95° |
| 2026-05-06 13:38 | -37.66460 | 144.83033 | 391 ft | 21 kts | 94° |
| 2026-05-06 13:39 | -37.66471 | 144.83206 | 397 ft | 13 kts | 94° |
| 2026-05-06 13:39 | -37.66477 | 144.83317 | 400 ft | 12 kts | 93° |
| 2026-05-06 13:39 | -37.66483 | 144.83425 | 402 ft | 12 kts | 95° |
| 2026-05-06 13:39 | -37.66489 | 144.83530 | 400 ft | 12 kts | 94° |
| 2026-05-06 13:40 | -37.66491 | 144.83564 | 403 ft | 0 kts | 94° |
| 2026-05-06 13:40 | -37.66491 | 144.83566 | 403 ft | 1 kts | 94° |
| 2026-05-06 13:40 | -37.66493 | 144.83596 | 403 ft | 7 kts | 94° |
| 2026-05-06 13:41 | -37.66496 | 144.83680 | 404 ft | 11 kts | 90° |
| 2026-05-06 13:41 | -37.66503 | 144.83782 | 403 ft | 12 kts | 98° |
| 2026-05-06 13:41 | -37.66507 | 144.83851 | 403 ft | 8 kts | 94° |
| 2026-05-06 13:41 | -37.66513 | 144.83917 | 403 ft | 7 kts | 103° |
| 2026-05-06 13:42 | -37.66558 | 144.83941 | 400 ft | 9 kts | 172° |
| 2026-05-06 13:42 | -37.66633 | 144.83954 | 395 ft | 13 kts | 172° |
| 2026-05-06 13:42 | -37.66732 | 144.83972 | 394 ft | 16 kts | 172° |
| 2026-05-06 13:42 | -37.66835 | 144.83992 | 390 ft | 13 kts | 172° |
| 2026-05-06 13:43 | -37.66923 | 144.84007 | 387 ft | 12 kts | 173° |
| 2026-05-06 13:43 | -37.67013 | 144.84024 | 384 ft | 14 kts | 171° |
| 2026-05-06 13:43 | -37.67109 | 144.84043 | 381 ft | 14 kts | 172° |
| 2026-05-06 13:43 | -37.67207 | 144.84061 | 378 ft | 15 kts | 171° |
| 2026-05-06 13:44 | -37.67316 | 144.84081 | 375 ft | 16 kts | 172° |
| 2026-05-06 13:44 | -37.67425 | 144.84101 | 372 ft | 15 kts | 172° |
| 2026-05-06 13:44 | -37.67498 | 144.84165 | 371 ft | 14 kts | 102° |
| 2026-05-06 13:44 | -37.67489 | 144.84281 | 374 ft | 13 kts | 83° |
| 2026-05-06 13:45 | -37.67476 | 144.84394 | 376 ft | 13 kts | 81° |
| 2026-05-06 13:45 | -37.67451 | 144.84606 | 379 ft | 10 kts | 82° |
| 2026-05-06 13:45 | -37.67441 | 144.84688 | 380 ft | 9 kts | 82° |
| 2026-05-06 13:46 | -37.67447 | 144.84719 | 380 ft | 2 kts | 137° |
| 2026-05-06 13:46 | -37.67465 | 144.84729 | 380 ft | 4 kts | 162° |
| 2026-05-06 13:46 | -37.67496 | 144.84736 | 379 ft | 2 kts | 171° |
| 2026-05-06 13:46 | -37.67511 | 144.84739 | 379 ft | 2 kts | 171° |
| 2026-05-06 13:47 | -37.67525 | 144.84742 | 378 ft | 0 kts | 172° |